createdAt,value
2023-01-18T00:07:12.964Z,0
2023-01-18T00:16:49.366Z,0
2023-01-18T00:26:26.072Z,0
2023-01-18T00:36:02.557Z,0
2023-01-18T00:45:39.478Z,0
2023-01-18T00:55:16.406Z,0
2023-01-18T01:04:53.206Z,0
2023-01-18T01:14:30.097Z,0
2023-01-18T01:24:07.284Z,0
2023-01-18T01:33:44.024Z,0
2023-01-18T01:43:20.686Z,0
2023-01-18T01:52:57.815Z,0
2023-01-18T02:02:34.423Z,0
2023-01-18T02:12:11.296Z,0
2023-01-18T02:21:47.907Z,0
2023-01-18T02:31:24.204Z,0
2023-01-18T02:41:00.671Z,0
2023-01-18T02:50:37.319Z,0
2023-01-18T03:00:14.223Z,0
2023-01-18T03:09:50.917Z,0
2023-01-18T03:19:27.789Z,0
2023-01-18T03:29:04.676Z,0
2023-01-18T03:38:41.211Z,0
2023-01-18T03:48:17.651Z,0
2023-01-18T03:57:54.722Z,0
2023-01-18T04:07:31.682Z,0
2023-01-18T04:17:08.725Z,0
2023-01-18T04:26:45.580Z,0
2023-01-18T04:36:22.648Z,0
2023-01-18T04:45:59.440Z,0
2023-01-18T04:55:36.402Z,0
2023-01-18T05:05:13.675Z,0
2023-01-18T05:14:50.443Z,0
2023-01-18T05:24:29.576Z,0
2023-01-18T05:34:04.042Z,0
2023-01-18T05:43:40.957Z,0
2023-01-18T05:53:17.927Z,0
2023-01-18T06:02:54.810Z,0
2023-01-18T06:12:31.753Z,0
2023-01-18T06:22:08.395Z,0
2023-01-18T06:31:45.171Z,0
2023-01-18T06:41:21.944Z,0
2023-01-18T06:50:58.886Z,0
2023-01-18T07:00:35.558Z,0
2023-01-18T07:10:13.330Z,0
2023-01-18T07:19:48.959Z,5.63
2023-01-18T07:29:25.976Z,16.88
2023-01-18T07:39:02.904Z,22.5
2023-01-18T07:48:39.877Z,22.5
2023-01-18T07:58:16.614Z,33.75
2023-01-18T08:07:53.659Z,50.63
2023-01-18T08:17:30.734Z,61.88
2023-01-18T08:27:07.875Z,45
2023-01-18T08:36:44.827Z,50.63
2023-01-18T08:46:21.556Z,45
2023-01-18T08:55:58.460Z,67.5
2023-01-18T09:05:35.957Z,90
2023-01-18T09:15:13.513Z,95.63
2023-01-18T09:24:51.677Z,123.75
2023-01-18T09:34:28.450Z,106.88
2023-01-18T09:44:05.176Z,118.13
2023-01-18T09:53:42.139Z,95.63
2023-01-18T10:03:19.669Z,151.88
2023-01-18T10:12:57.373Z,196.88
2023-01-18T10:22:34.910Z,213.75
2023-01-18T10:32:12.267Z,191.25
2023-01-18T10:41:48.766Z,135
2023-01-18T10:51:25.413Z,129.38
2023-01-18T11:01:02.913Z,157.5
2023-01-18T11:10:39.885Z,208.13
2023-01-18T11:20:18.585Z,241.88
2023-01-18T11:29:55.193Z,180
2023-01-18T11:39:31.433Z,163.13
2023-01-18T11:49:08.279Z,213.75
2023-01-18T11:58:45.856Z,191.25
2023-01-18T12:08:22.543Z,174.38
2023-01-18T12:18:11.886Z,106.88
2023-01-18T12:27:35.261Z,78.75
2023-01-18T12:37:11.771Z,73.13
2023-01-18T12:46:48.660Z,73.13
2023-01-18T12:56:26.183Z,90
2023-01-18T13:06:02.943Z,84.38
2023-01-18T13:15:39.771Z,67.5
2023-01-18T13:25:16.163Z,78.75
2023-01-18T13:34:53.235Z,50.63
2023-01-18T13:44:28.864Z,56.25
2023-01-18T13:54:05.599Z,56.25
2023-01-18T14:03:42.651Z,67.5
2023-01-18T14:13:19.522Z,84.38
2023-01-18T14:22:56.747Z,78.75
2023-01-18T14:32:32.991Z,67.5
2023-01-18T14:42:09.391Z,67.5
2023-01-18T14:51:46.010Z,61.88
2023-01-18T15:01:22.173Z,45
2023-01-18T15:10:58.630Z,16.88
2023-01-18T15:20:34.965Z,11.25
2023-01-18T15:30:11.599Z,5.63
2023-01-18T15:39:48.666Z,0
2023-01-18T15:49:25.514Z,0
2023-01-18T15:59:02.113Z,0
2023-01-18T16:08:38.980Z,0
2023-01-18T16:18:15.055Z,0
2023-01-18T16:27:51.266Z,0
2023-01-18T16:37:27.306Z,0
2023-01-18T16:47:02.921Z,0
2023-01-18T16:56:38.799Z,0
2023-01-18T17:06:14.801Z,0
2023-01-18T17:15:51.286Z,0
2023-01-18T17:25:27.689Z,0
2023-01-18T17:35:05.982Z,0
2023-01-18T17:44:41.098Z,0
2023-01-18T17:54:20.823Z,0
2023-01-18T18:03:54.013Z,0
2023-01-18T18:13:30.142Z,0
2023-01-18T18:23:08.619Z,0
2023-01-18T18:32:42.985Z,0
2023-01-18T18:42:19.450Z,0
2023-01-18T18:51:55.834Z,0
2023-01-18T19:01:32.279Z,0
2023-01-18T19:11:07.924Z,0
2023-01-18T19:20:43.779Z,0
2023-01-18T19:30:19.932Z,0
2023-01-18T19:39:56.598Z,0
2023-01-18T19:49:32.416Z,0
2023-01-18T19:59:08.727Z,0
2023-01-18T20:08:45.049Z,0
2023-01-18T20:18:21.515Z,0
2023-01-18T20:27:57.577Z,0
2023-01-18T20:37:33.836Z,0
2023-01-18T20:47:10.293Z,0
2023-01-18T20:56:47.089Z,0
2023-01-18T21:06:22.673Z,0
2023-01-18T21:15:58.785Z,0
2023-01-18T21:25:35.051Z,0
2023-01-18T21:35:11.880Z,0
2023-01-18T21:44:48.351Z,0
2023-01-18T21:54:24.925Z,0
2023-01-18T22:04:01.189Z,0
2023-01-18T22:13:37.800Z,0
2023-01-18T22:23:14.160Z,0
2023-01-18T22:32:50.513Z,0
2023-01-18T22:42:26.835Z,0
2023-01-18T22:52:03.440Z,0
2023-01-18T23:01:40.110Z,0
2023-01-18T23:11:16.257Z,0
2023-01-18T23:20:51.670Z,0
2023-01-18T23:30:28.339Z,0
2023-01-18T23:40:04.233Z,0
2023-01-18T23:49:40.442Z,0
2023-01-18T23:59:19.000Z,0
